Mercedes, Texas
Current Conditions -  °F | °C
As of 5:15 AM on Sunday 21 Dec 2014 (Local Time) from KT65 Reporting Station
Overcast Overcast  
Wind Chill: 55°   Ceiling: 1100
Heat Index: 55°   Visibility: 7mi
Dew Point: 51°   Wind: 7mph
Humidity: 87%   Direction: 340°NNW
Pressure: 30.06"   Gusts: NA
Location:  26.15°N, 97.91°W
Report Text: KT65 211115Z AUTO 34006KT 7SM OVC011 13/11 A3006 RMK AO2 T01300108
Loading
Personal Weather Stations






























Interactive Weather Map New forecast layout! Learn more

10-Day Weather Forecast

Advertisements
Track Severe Weather on mobile